Latest Weather Observations for Morawa Airport

IDW60801

Issued at 7:32 pm WST Tuesday 4 August 2015 (issued every 30 minutes, with the page automatically refreshed every 10 minutes)

About weather observations | Map of weather stations | Latest weather observations for WA | Other Formats
Station Details ID: 008296 Name: MORAWA AIRPORT Lat: -29.20 Lon: 116.02 Height: 271.4 m
Data from the previous 72 hours. | See also: Recent months at Morawa Airport
Date/Time
WST
Temp
°C
App
Temp
°C
Dew
Point
Rel
Hum
%
Delta-T
°C
Wind Press
QNH
hPa
Press
MSL
hPa
Rain
since 9 am
mm
Dir
 
Spd
km/h
Gust
km/h
Spd
kts
Gust
kts
04/07:30pm 11.7 8.9 7.0 73 2.3 ESE 11 15 6 8 1028.3 1028.2 0.0
04/07:00pm 12.1 9.3 7.0 71 2.5 ESE 11 17 6 9 1028.2 1028.1 0.0
04/06:30pm 12.4 9.7 7.3 71 2.5 SE 11 15 6 8 1028.1 1028.0 0.0
04/06:00pm 12.8 10.1 7.3 69 2.7 SE 11 15 6 8 1027.8 1027.7 0.0
04/05:30pm 13.8 10.7 7.3 65 3.2 SE 13 20 7 11 1027.8 1027.7 0.0
04/05:00pm 14.7 11.3 7.5 62 3.6 ESE 15 20 8 11 1027.8 1027.7 0.0
04/04:30pm 15.1 11.3 7.6 61 3.8 ESE 17 22 9 12 1027.7 1027.6 0.0
04/04:00pm 15.5 11.6 7.0 57 4.2 ESE 17 24 9 13 1027.7 1027.6 0.0
04/03:30pm 15.6 11.7 6.9 56 4.3 ESE 17 26 9 14 1027.8 1027.7 0.0
04/03:00pm 15.8 11.5 6.8 55 4.5 E 19 24 10 13 1027.7 1027.6 0.0
04/02:30pm 15.4 11.5 6.9 57 4.2 E 17 22 9 12 1027.9 1027.8 0.0
04/02:00pm 15.5 12.5 7.5 59 4.0 ENE 13 20 7 11 1028.1 1028.0 0.0
04/01:30pm 15.2 11.2 6.7 57 4.2 ENE 17 22 9 12 1028.4 1028.4 0.0
04/01:00pm 14.9 10.9 6.7 58 4.0 ENE 17 22 9 12 1029.0 1028.9 0.0
04/12:30pm 14.7 10.4 7.0 60 3.8 ENE 19 24 10 13 1029.1 1029.0 0.0
04/12:00pm 14.4 10.5 7.2 62 3.6 ENE 17 22 9 12 1029.7 1029.6 0.0
04/11:30am 13.8 9.6 7.3 65 3.2 ENE 19 26 10 14 1030.1 1030.0 0.0
04/11:00am 13.5 9.6 7.3 66 3.0 ENE 17 24 9 13 1030.6 1030.5 0.0
04/10:30am 12.5 8.6 7.2 70 2.6 ENE 17 24 9 13 1030.9 1030.8 0.0
04/10:00am 11.9 8.1 7.4 74 2.2 ENE 17 22 9 12 1031.1 1031.0 0.0
04/09:30am 11.4 7.9 7.3 76 2.0 ENE 15 22 8 12 1031.3 1031.2 0.0
04/09:00am 11.1 8.0 7.4 78 1.8 E 13 20 7 11 1031.1 1031.0 0.0
04/08:30am 10.4 8.1 7.5 82 1.4 ESE 9 15 5 8 1031.2 1031.1 0.0
04/08:00am 9.6 7.7 7.5 87 1.0 ESE 7 9 4 5 1031.2 1031.1 0.0
04/07:30am 9.5 7.1 6.8 83 1.3 E 9 13 5 7 1030.9 1030.8 0.0
04/07:00am 9.5 6.2 6.6 82 1.4 E 13 20 7 11 1030.4 1030.3 0.0
04/06:30am 9.4 6.5 6.7 83 1.3 E 11 15 6 8 1030.2 1030.1 0.0
04/06:00am 9.6 6.4 6.7 82 1.4 E 13 17 7 9 1030.0 1029.9 0.0
04/05:30am 9.2 6.4 6.8 85 1.1 E 11 15 6 8 1029.8 1029.7 0.0
04/05:00am 8.5 5.0 7.3 92 0.6 ESE 15 17 8 9 1029.7 1029.6 0.0
04/04:30am 9.0 7.1 6.8 86 1.0 E 6 7 3 4 1030.3 1030.2 0.0
04/04:00am 9.2 6.8 7.2 87 0.9 ESE 9 13 5 7 1029.7 1029.6 0.0
04/03:30am 8.4 6.7 7.5 94 0.4 SE 6 7 3 4 1029.9 1029.8 0.0
04/03:00am 9.2 6.8 7.0 86 1.0 ESE 9 13 5 7 1029.8 1029.7 0.0
04/02:30am 9.5 7.1 7.1 85 1.1 E 9 11 5 6 1030.0 1029.9 0.0
04/02:00am 9.1 7.1 7.2 88 0.9 E 7 11 4 6 1030.1 1030.0 0.0
04/01:30am 9.1 7.3 7.1 87 1.0 E 6 7 3 4 1030.3 1030.2 0.0
04/01:00am 8.8 7.0 7.3 90 0.7 ESE 6 9 3 5 1030.2 1030.1 0.0
04/12:30am 9.4 7.6 7.2 86 1.1 E 6 7 3 4 1030.1 1030.0 0.0
04/12:00am 10.0 7.7 7.4 84 1.2 E 9 13 5 7 1030.2 1030.1 0.0
 
Date/Time
WST
Temp
°C
App
Temp
°C
Dew
Point
Rel
Hum
%
Delta-T
°C
Wind Press
QNH
hPa
Press
MSL
hPa
Rain
since 9 am
mm
Dir
 
Spd
km/h
Gust
km/h
Spd
kts
Gust
kts
03/11:30pm 9.3 6.8 8.1 92 0.6 ESE 11 13 6 7 1030.1 1030.0 0.0
03/11:00pm 9.7 7.4 7.6 87 1.0 SE 9 13 5 7 1030.3 1030.2 0.0
03/10:30pm 9.5 7.2 7.3 86 1.1 SE 9 11 5 6 1030.5 1030.4 0.0
03/10:00pm 9.5 7.1 6.8 83 1.3 SE 9 11 5 6 1030.5 1030.4 0.0
03/09:30pm 10.0 8.0 7.3 83 1.3 SE 7 11 4 6 1030.6 1030.5 0.0
03/09:00pm 10.2 8.2 6.9 80 1.6 SE 7 9 4 5 1030.7 1030.6 0.0
03/08:30pm 11.2 8.7 6.5 73 2.2 SE 9 11 5 6 1030.8 1030.7 0.0
03/08:00pm 11.9 9.3 6.2 68 2.7 ESE 9 11 5 6 1030.7 1030.6 0.0
03/07:30pm 11.8 9.6 6.3 69 2.6 ESE 7 9 4 5 1030.5 1030.4 0.0
03/07:00pm 12.4 9.4 6.2 66 2.9 SE 11 13 6 7 1030.3 1030.2 0.0
03/06:30pm 13.0 9.7 6.4 64 3.2 ESE 13 17 7 9 1029.9 1029.8 0.0
03/06:00pm 13.4 10.1 6.3 62 3.4 SE 13 17 7 9 1029.6 1029.5 0.0
03/05:30pm 14.2 10.8 5.8 57 4.0 ESE 13 17 7 9 1029.2 1029.1 0.0
03/05:00pm 15.3 11.0 5.2 51 4.8 ESE 17 22 9 12 1029.2 1029.1 0.0
03/04:30pm 16.0 11.6 4.7 47 5.4 ESE 17 22 9 12 1029.2 1029.1 0.0
03/04:00pm 16.6 11.8 4.9 46 5.6 E 19 24 10 13 1029.2 1029.1 0.0
03/03:30pm 16.6 11.9 5.3 47 5.5 E 19 26 10 14 1029.3 1029.2 0.0
03/03:00pm 16.5 12.3 5.8 49 5.2 E 17 22 9 12 1029.4 1029.3 0.0
03/02:30pm 16.5 12.8 6.1 50 5.1 E 15 22 8 12 1029.5 1029.4 0.0
03/02:00pm 16.4 12.6 5.7 49 5.2 E 15 24 8 13 1029.7 1029.6 0.0
03/01:30pm 16.5 12.5 6.6 52 4.9 E 17 24 9 13 1030.1 1030.0 0.0
03/01:00pm 15.9 12.0 6.9 55 4.5 E 17 24 9 13 1030.6 1030.5 0.0
03/12:30pm 15.0 10.3 6.0 55 4.4 ENE 20 28 11 15 1030.9 1030.8 0.0
03/12:00pm 15.4 10.9 6.9 57 4.2 E 20 28 11 15 1031.2 1031.1 0.0
03/11:30am 14.5 9.5 6.3 58 4.0 ENE 22 33 12 18 1031.5 1031.4 0.0
03/11:00am 14.0 8.5 6.1 59 3.8 ENE 24 35 13 19 1031.9 1031.9 0.0
03/10:30am 13.6 8.3 6.7 63 3.4 ENE 24 35 13 19 1032.0 1032.0 0.0
03/10:00am 12.4 7.0 6.2 66 2.9 ENE 24 37 13 20 1032.2 1032.2 0.0
03/09:30am 10.9 5.0 5.9 71 2.4 ENE 26 39 14 21 1032.4 1032.4 0.0
03/09:00am 10.2 4.7 5.8 74 2.0 ENE 24 30 13 16 1032.4 1032.4 0.0
03/08:30am 9.4 4.9 5.9 79 1.6 E 19 26 10 14 1032.3 1032.3 0.0
03/08:00am 8.4 4.2 5.9 84 1.1 E 17 24 9 13 1032.2 1032.2 0.0
03/07:30am 7.5 4.5 6.0 90 0.7 E 11 19 6 10 1031.9 1031.9 0.0
03/07:00am 7.0 3.2 5.8 92 0.5 E 15 22 8 12 1031.4 1031.3 0.0
03/06:30am 7.0 3.3 6.1 94 0.4 E 15 22 8 12 1031.2 1031.1 0.0
03/06:00am 7.1 3.4 6.4 95 0.3 E 15 19 8 10 1031.3 1031.2 0.0
03/05:30am 7.0 3.5 7.0 100 0.0 E 15 20 8 11 1031.2 1031.1 0.0
03/05:00am 7.0 3.8 7.0 100 0.0 E 13 19 7 10 1030.9 1030.8 0.0
03/04:30am 5.3 2.9 5.3 100 0.0 ESE 7 9 4 5 1031.0 1030.9 0.0
03/04:00am 6.2 3.6 6.2 100 0.0 ESE 9 11 5 6 1031.1 1031.0 0.0
03/03:30am 6.8 3.2 6.8 100 0.0 ESE 15 19 8 10 1030.9 1030.8 0.0
03/03:00am 6.8 3.6 6.8 100 0.0 ESE 13 17 7 9 1030.9 1030.8 0.0
03/02:30am 6.7 3.8 6.7 100 0.0 SE 11 15 6 8 1031.3 1031.2 0.0
03/02:00am 6.8 4.0 6.8 100 0.0 SE 11 15 6 8 1031.4 1031.3 0.0
03/01:30am 6.7 4.2 6.7 100 0.0 SE 9 13 5 7 1031.5 1031.4 0.0
03/01:00am 7.0 4.9 6.7 98 0.1 SE 7 11 4 6 1031.5 1031.4 0.0
03/12:30am 8.1 5.5 7.8 98 0.1 ESE 11 15 6 8 1031.4 1031.3 0.0
03/12:00am 7.0 4.6 7.0 100 0.0 SE 9 11 5 6 1031.1 1031.0 0.0
 
Date/Time
WST
Temp
°C
App
Temp
°C
Dew
Point
Rel
Hum
%
Delta-T
°C
Wind Press
QNH
hPa
Press
MSL
hPa
Rain
since 9 am
mm
Dir
 
Spd
km/h
Gust
km/h
Spd
kts
Gust
kts
02/11:30pm 7.7 5.1 7.6 99 0.0 SE 11 13 6 7 1031.1 1031.0 0.0
02/11:00pm 8.5 5.8 7.3 92 0.6 SE 11 13 6 7 1031.1 1031.0 0.0
02/10:30pm 9.0 6.0 7.9 93 0.5 ESE 13 20 7 11 1031.2 1031.1 0.0
02/10:00pm 8.7 6.1 7.6 93 0.5 ESE 11 13 6 7 1031.6 1031.6 0.0
02/09:30pm 8.6 6.2 7.2 91 0.7 ESE 9 11 5 6 1031.8 1031.8 0.0
02/09:00pm 10.1 7.4 7.2 82 1.4 ESE 11 13 6 7 1032.1 1032.1 0.0
02/08:30pm 11.1 7.9 6.8 75 2.1 ESE 13 19 7 10 1031.9 1031.9 0.0
02/08:00pm 12.0 8.6 7.5 74 2.2 ESE 15 20 8 11 1031.7 1031.7 0.0
02/07:30pm 12.7 8.4 7.0 68 2.8 E 19 28 10 15 1031.5 1031.4 0.0
02/07:00pm 12.9 8.7 7.4 69 2.7 E 19 30 10 16 1031.2 1031.1 0.0
02/06:30pm 13.1 9.8 8.2 72 2.5 ESE 15 20 8 11 1030.9 1030.8 0.0
02/06:00pm 13.4 10.5 8.3 71 2.6 E 13 20 7 11 1030.5 1030.4 0.0
02/05:30pm 13.6 10.0 8.4 71 2.6 ESE 17 28 9 15 1030.3 1030.2 0.0
02/05:00pm 13.7 9.5 8.3 70 2.7 ESE 20 28 11 15 1029.8 1029.7 0.0
02/04:30pm 13.7 8.8 8.3 70 2.7 ESE 24 30 13 16 1029.6 1029.5 0.0
02/04:00pm 14.0 9.5 8.4 69 2.8 ESE 22 32 12 17 1029.4 1029.3 0.0
02/03:30pm 14.4 10.4 9.0 70 2.8 SE 20 28 11 15 1029.4 1029.3 0.0
02/03:00pm 14.5 10.5 8.9 69 2.9 ESE 20 30 11 16 1029.2 1029.1 0.0
02/02:30pm 15.0 11.0 8.9 67 3.2 ESE 20 30 11 16 1029.2 1029.1 0.0
02/02:00pm 14.3 9.8 8.5 68 2.9 ESE 22 32 12 17 1029.3 1029.2 0.0
02/01:30pm 14.1 9.6 8.5 69 2.9 ESE 22 28 12 15 1029.4 1029.3 0.0
02/01:00pm 13.9 9.4 8.7 71 2.6 SE 22 30 12 16 1029.7 1029.6 0.0
02/12:30pm 13.9 9.3 8.3 69 2.8 ESE 22 32 12 17 1030.0 1029.9 0.0
02/12:00pm 13.9 9.4 8.5 70 2.7 ESE 22 32 12 17 1030.5 1030.4 0.0
02/11:30am 13.3 8.7 8.0 70 2.7 ESE 22 28 12 15 1030.8 1030.7 0.0
02/11:00am 13.0 8.0 7.9 71 2.5 E 24 32 13 17 1030.9 1030.8 0.0
02/10:30am 12.8 7.9 8.3 74 2.3 ESE 24 35 13 19 1030.9 1030.8 0.0
02/10:00am 12.2 7.3 8.5 78 1.8 ESE 24 37 13 20 1030.8 1030.7 0.0
02/09:30am 11.9 7.4 8.6 80 1.7 ESE 22 32 12 17 1030.5 1030.4 0.0
02/09:00am 12.1 7.3 8.8 80 1.7 SE 24 32 13 17 1030.1 1030.0 0.0
02/08:30am 11.0 6.4 8.2 83 1.4 SE 22 32 12 17 1029.8 1029.7 0.0
02/08:00am 10.5 6.4 8.6 88 0.9 SE 20 28 11 15 1029.4 1029.3 0.0
02/07:30am 10.2 6.1 8.6 90 0.8 SE 20 28 11 15 1029.1 1029.0 0.0
02/07:00am 10.2 6.1 8.6 90 0.8 SE 20 30 11 16 1028.7 1028.7 0.0
02/06:30am 10.2 6.3 8.8 91 0.7 SE 19 24 10 13 1028.5 1028.5 0.0
02/06:00am 10.2 6.1 8.8 91 0.7 SE 20 28 11 15 1028.2 1028.1 0.0
02/05:30am 10.4 6.4 9.0 91 0.7 SE 20 30 11 16 1027.9 1027.8 0.0
02/05:00am 10.4 7.0 9.2 92 0.6 SE 17 22 9 12 1027.8 1027.7 0.0
02/04:30am 10.5 7.0 8.9 90 0.8 SE 17 22 9 12 1027.8 1027.7 0.0
02/04:00am 10.7 6.9 9.1 90 0.8 SE 19 24 10 13 1027.5 1027.4 0.0
02/03:30am 11.3 7.8 8.9 85 1.2 SE 17 22 9 12 1027.5 1027.4 0.0
02/03:00am 11.1 7.3 9.2 88 1.0 SE 19 26 10 14 1027.3 1027.2 0.0
02/02:30am 10.8 7.5 9.4 91 0.7 SE 17 24 9 13 1027.2 1027.1 0.0
02/02:00am 11.1 7.4 9.4 89 0.9 SE 19 24 10 13 1027.3 1027.2 0.0
02/01:30am 11.5 7.8 9.4 87 1.1 SE 19 26 10 14 1027.4 1027.3 0.0
02/01:00am 11.7 7.7 9.1 84 1.3 SE 20 26 11 14 1027.2 1027.1 0.0
02/12:30am 11.9 7.5 9.1 83 1.4 SE 22 33 12 18 1027.1 1027.0 0.0
02/12:00am 11.9 7.3 9.5 85 1.2 SE 24 32 13 17 1027.0 1026.9 0.0
 
Date/Time
WST
Temp
°C
App
Temp
°C
Dew
Point
Rel
Hum
%
Delta-T
°C
Wind Press
QNH
hPa
Press
MSL
hPa
Rain
since 9 am
mm
Dir
 
Spd
km/h
Gust
km/h
Spd
kts
Gust
kts
01/11:30pm 12.1 8.2 9.3 83 1.4 SE 20 32 11 17 1027.1 1027.0 0.0
01/11:00pm 12.1 7.9 9.7 85 1.2 SE 22 32 12 17 1026.8 1026.7 0.0
01/10:30pm 11.9 7.8 10.0 88 1.0 SE 22 32 12 17 1026.5 1026.4 0.0
01/10:00pm 11.9 7.8 10.0 88 1.0 SE 22 32 12 17 1026.4 1026.3 0.0
01/09:30pm 12.1 8.1 10.3 89 0.9 SE 22 32 12 17 1026.1 1026.0 0.0
01/09:00pm 12.2 7.4 10.3 88 1.0 SE 26 35 14 19 1026.0 1025.9 0.0
01/08:30pm 12.1 7.8 10.7 91 0.7 SSE 24 32 13 17 1025.7 1025.6 0.0
01/08:00pm 12.5 8.1 10.4 87 1.1 SSE 24 35 13 19 1025.5 1025.4 0.0

Other Formats:

Comma delimited format used in spreadsheet applications
http://www.bom.gov.au/fwo/IDW60801/IDW60801.94417.axf

JavaScript Object Notation format (JSON) in row-major order
http://www.bom.gov.au/fwo/IDW60801/IDW60801.94417.json